Waverly, Iowa
Current Conditions -  °F | °C
As of 5:54 PM on Tuesday 25 Nov 2014 (Local Time) from KALO Reporting Station
Clear Clear  
Wind Chill: 16°   Ceiling: Unl
Heat Index: 16°   Visibility: 10mi
Dew Point: 12°   Wind: 3mph
Humidity: 84%   Direction: 150°SSE
Pressure: 30.09"   Gusts: NA
Location:  42.73°N, 92.48°W
Report Text: KALO 252354Z AUTO 15003KT 10SM CLR M09/M11 A3009 RMK AO2 SLP206 T10891111 11044 21094 55003
Loading
Personal Weather Stations






























Interactive Weather Map New forecast layout! Learn more

10-Day Weather Forecast

Advertisements
Track Severe Weather on mobile